Time;durP1;ratioP1;P1;durP2;ratioP2;P2;SDS_P1;SDS_P2;PMS_P1;PMS_P2;Temp;Humidity;BMP_temperature;BMP_pressure;BME280_temperature;BME280_humidity;BME280_pressure;Samples;Min_cycle;Max_cycle;Signal;HPM_P1;HPM_P2
2022/04/26 03:37:52;;;;;;;;;;;9.60;99.90;;;;;;5069584;28;19935;-58
2022/04/26 03:40:19;;;;;;;;;;;9.60;99.90;;;;;;5065639;28;19929;-58
2022/04/26 03:42:46;;;;;;;;;;;9.70;99.90;;;;;;5061626;28;19982;-57
2022/04/26 03:45:13;;;;;;;;;;;9.80;99.90;;;;;;5069278;28;19929;-58
2022/04/26 03:47:40;;;;;;;;;;;9.70;99.90;;;;;;5070153;28;19987;-58
2022/04/26 03:50:08;;;;;;;;;;;9.70;99.90;;;;;;5066572;28;19979;-58
2022/04/26 03:52:35;;;;;;;;;;;9.60;99.90;;;;;;5065989;28;19989;-58
2022/04/26 03:55:02;;;;;;;;;;;9.50;99.90;;;;;;5070857;28;20352;-58
2022/04/26 03:57:29;;;;;;;;;;;9.60;99.90;;;;;;5070304;28;20037;-58
2022/04/26 03:59:56;;;;;;;;;;;9.60;99.90;;;;;;5068787;28;19993;-58
2022/04/26 04:02:23;;;;;;;;;;;9.80;99.90;;;;;;5070582;28;19928;-58
2022/04/26 04:04:50;;;;;;;;;;;9.90;99.90;;;;;;5070648;28;20309;-58
2022/04/26 04:07:18;;;;;;;;;;;9.90;99.90;;;;;;5070838;28;19979;-58
2022/04/26 04:09:45;;;;;;;;;;;9.90;99.90;;;;;;5070373;28;19928;-58
2022/04/26 04:12:12;;;;;;;;;;;10.00;99.90;;;;;;5066171;28;19929;-58
2022/04/26 04:14:39;;;;;;;;;;;10.10;99.90;;;;;;5071928;28;19936;-58
2022/04/26 04:17:06;;;;;;;;;;;10.10;99.90;;;;;;5074204;28;20402;-58
2022/04/26 04:19:32;;;;;;;;;;;10.10;99.90;;;;;;5071696;28;19928;-58
2022/04/26 04:21:59;;;;;;;;;;;10.10;99.90;;;;;;5072156;28;20009;-58
2022/04/26 04:24:27;;;;;;;;;;;10.30;99.90;;;;;;5074232;28;19925;-58
2022/04/26 04:26:55;;;;;;;;;;;10.60;99.90;;;;;;5073534;28;19928;-58
2022/04/26 04:29:21;;;;;;;;;;;10.60;99.90;;;;;;5074085;28;19924;-58
2022/04/26 04:31:49;;;;;;;;;;;10.40;99.90;;;;;;5073682;28;19970;-59
2022/04/26 04:34:16;;;;;;;;;;;10.20;99.90;;;;;;5072106;28;19946;-58
2022/04/26 04:36:43;;;;;;;;;;;10.10;99.90;;;;;;5072653;28;20445;-58
2022/04/26 04:39:09;;;;;;;;;;;10.10;99.90;;;;;;5066178;28;19925;-58
2022/04/26 04:41:38;;;;;;;;;;;10.20;99.90;;;;;;5069502;28;19933;-58
2022/04/26 04:44:05;;;;;;;;;;;10.30;99.90;;;;;;5060737;28;19932;-58
2022/04/26 04:46:32;;;;;;;;;;;10.10;99.90;;;;;;5071368;28;19924;-58
2022/04/26 04:48:59;;;;;;;;;;;10.20;99.90;;;;;;5066429;28;20011;-58
2022/04/26 04:51:26;;;;;;;;;;;10.30;99.90;;;;;;5058709;28;20290;-59
2022/04/26 04:53:52;;;;;;;;;;;10.20;99.90;;;;;;5054341;28;20319;-58
2022/04/26 04:56:19;;;;;;;;;;;10.40;99.90;;;;;;5060602;28;19985;-58
2022/04/26 04:58:48;;;;;;;;;;;10.30;99.90;;;;;;5073143;28;19932;-58
2022/04/26 05:01:14;;;;;;;;;;;10.30;99.90;;;;;;5069295;28;19940;-58
2022/04/26 05:03:41;;;;;;;;;;;10.10;99.90;;;;;;5059731;28;19924;-58
2022/04/26 05:06:08;;;;;;;;;;;10.00;99.90;;;;;;5057157;28;19928;-58
2022/04/26 05:08:35;;;;;;;;;;;10.20;99.90;;;;;;5072680;28;19990;-58
2022/04/26 05:11:02;;;;;;;;;;;10.10;99.90;;;;;;5066376;28;19924;-59
2022/04/26 05:13:28;;;;;;;;;;;10.20;99.90;;;;;;5065440;28;19970;-58
2022/04/26 05:15:57;;;;;;;;;;;10.20;99.90;;;;;;5070586;28;19924;-58
2022/04/26 05:18:23;;;;;;;;;;;10.30;99.90;;;;;;5061032;28;20456;-58
2022/04/26 05:20:50;;;;;;;;;;;10.20;99.90;;;;;;5067689;28;19925;-59
2022/04/26 05:26:02;;;;;;;;;;;10.30;99.90;;;;;;5067897;28;19935;-58
2022/04/26 05:28:29;;;;;;;;;;;10.50;99.90;;;;;;5065151;28;20455;-58
2022/04/26 05:30:57;;;;;;;;;;;10.70;99.90;;;;;;5064907;28;19929;-58
2022/04/26 05:33:26;;;;;;;;;;;10.90;99.90;;;;;;5062478;28;19985;-58
2022/04/26 05:35:53;;;;;;;;;;;10.90;99.90;;;;;;5065393;28;19924;-59
2022/04/26 05:38:20;;;;;;;;;;;11.10;99.90;;;;;;5066024;28;19925;-58
2022/04/26 05:40:53;;;;;;;;;;;11.00;99.90;;;;;;5067326;28;20351;-59
2022/04/26 05:43:20;;;;;;;;;;;11.00;99.90;;;;;;5069602;28;19982;-58
2022/04/26 05:45:47;;;;;;;;;;;11.20;99.90;;;;;;5064631;28;19947;-58
2022/04/26 05:48:15;;;;;;;;;;;11.20;99.90;;;;;;5062282;28;19951;-58
2022/04/26 05:50:42;;;;;;;;;;;11.20;99.90;;;;;;5063775;28;19925;-58
2022/04/26 05:53:09;;;;;;;;;;;11.20;99.90;;;;;;5059240;28;19928;-58
2022/04/26 05:55:36;;;;;;;;;;;11.30;99.90;;;;;;5066159;28;19928;-58
2022/04/26 05:58:03;;;;;;;;;;;11.50;99.90;;;;;;5066851;28;19978;-58
2022/04/26 06:00:30;;;;;;;;;;;11.30;99.90;;;;;;5064665;28;19924;-58
2022/04/26 06:02:57;;;;;;;;;;;11.50;99.90;;;;;;5060492;28;20439;-59
2022/04/26 06:05:25;;;;;;;;;;;11.60;99.90;;;;;;5068382;28;19932;-58
2022/04/26 06:07:52;;;;;;;;;;;11.80;99.90;;;;;;5069879;28;20436;-58
2022/04/26 06:10:18;;;;;;;;;;;11.90;99.90;;;;;;5061180;28;19986;-58
2022/04/26 06:12:46;;;;;;;;;;;11.90;99.90;;;;;;5066463;28;19974;-58
2022/04/26 06:15:13;;;;;;;;;;;12.00;99.90;;;;;;5064912;28;19928;-58
2022/04/26 06:17:40;;;;;;;;;;;12.00;99.90;;;;;;5066964;28;20337;-58
2022/04/26 06:20:07;;;;;;;;;;;12.10;99.90;;;;;;5069640;22;19932;-49
2022/04/26 06:22:35;;;;;;;;;;;12.00;99.90;;;;;;5049763;28;19928;-49
2022/04/26 06:25:02;;;;;;;;;;;12.10;99.90;;;;;;5049653;28;19924;-48
2022/04/26 06:27:29;;;;;;;;;;;12.10;99.90;;;;;;5049244;28;19936;-49
2022/04/26 06:29:56;;;;;;;;;;;12.00;99.90;;;;;;5035387;28;19929;-49
2022/04/26 06:32:22;;;;;;;;;;;11.80;99.90;;;;;;5038982;28;19978;-49
2022/04/26 06:34:49;;;;;;;;;;;11.60;99.90;;;;;;5039761;28;20560;-49
2022/04/26 06:37:16;;;;;;;;;;;11.20;99.90;;;;;;5038672;28;19936;-50
2022/04/26 06:39:44;;;;;;;;;;;11.30;99.90;;;;;;5039278;28;19937;-50
2022/04/26 06:42:11;;;;;;;;;;;11.30;99.90;;;;;;5039487;28;19928;-51
2022/04/26 06:44:38;;;;;;;;;;;11.40;99.90;;;;;;5039936;28;19931;-50
2022/04/26 06:47:05;;;;;;;;;;;11.40;99.90;;;;;;5040671;28;19986;-50
2022/04/26 06:49:32;;;;;;;;;;;11.40;99.90;;;;;;5043033;28;19932;-50
2022/04/26 06:51:58;;;;;;;;;;;11.50;99.90;;;;;;5049832;28;19986;-50
2022/04/26 06:54:25;;;;;;;;;;;11.60;99.90;;;;;;5046972;28;19978;-51
2022/04/26 06:56:53;;;;;;;;;;;11.60;99.90;;;;;;5049274;28;19994;-50
2022/04/26 06:59:20;;;;;;;;;;;11.60;99.90;;;;;;5049950;28;19942;-50
2022/04/26 07:01:52;;;;;;;;;;;11.50;99.90;;;;;;5048646;28;20382;-49
2022/04/26 07:04:19;;;;;;;;;;;11.50;99.90;;;;;;5049973;28;19929;-50
2022/04/26 07:06:46;;;;;;;;;;;11.50;99.90;;;;;;5050447;28;19925;-50
2022/04/26 07:09:12;;;;;;;;;;;11.40;99.90;;;;;;5042029;28;19925;-50
2022/04/26 07:11:41;;;;;;;;;;;11.40;99.90;;;;;;5040885;28;19933;-50
2022/04/26 07:14:09;;;;;;;;;;;11.30;99.90;;;;;;5045006;28;20333;-50
2022/04/26 07:16:36;;;;;;;;;;;11.30;99.90;;;;;;5045986;28;20345;-51
2022/04/26 07:19:03;;;;;;;;;;;11.20;99.90;;;;;;5040270;28;20387;-51
2022/04/26 07:21:48;;;;;;;;;;;11.20;99.90;;;;;;5040922;28;19928;-50
2022/04/26 07:24:16;;;;;;;;;;;11.20;99.90;;;;;;5039822;28;19929;-51
2022/04/26 07:26:43;;;;;;;;;;;11.10;99.90;;;;;;5039789;28;19928;-50
2022/04/26 07:29:11;;;;;;;;;;;11.20;99.90;;;;;;5040860;28;20008;-50
2022/04/26 07:31:38;;;;;;;;;;;11.30;99.90;;;;;;5037710;28;19933;-51
2022/04/26 07:34:22;;;;;;;;;;;11.20;99.90;;;;;;5046830;28;19932;-49
2022/04/26 07:36:49;;;;;;;;;;;11.10;99.90;;;;;;5049910;28;20396;-49
2022/04/26 07:39:17;;;;;;;;;;;11.00;99.90;;;;;;5045638;28;20391;-51
2022/04/26 07:41:44;;;;;;;;;;;11.10;99.90;;;;;;5044708;28;19968;-50
2022/04/26 07:44:12;;;;;;;;;;;11.10;99.90;;;;;;5048330;28;19974;-50
2022/04/26 07:46:39;;;;;;;;;;;11.10;99.90;;;;;;5044144;28;19978;-50
2022/04/26 07:49:06;;;;;;;;;;;11.20;99.90;;;;;;5045239;28;19979;-51
2022/04/26 07:51:33;;;;;;;;;;;11.20;99.90;;;;;;5043576;28;19982;-51
2022/04/26 07:54:00;;;;;;;;;;;11.30;99.90;;;;;;5049125;28;19929;-49
2022/04/26 07:56:28;;;;;;;;;;;11.20;99.90;;;;;;5040192;28;19928;-50
2022/04/26 07:58:58;;;;;;;;;;;11.00;99.90;;;;;;5043474;28;20003;-50
2022/04/26 08:01:26;;;;;;;;;;;11.00;99.90;;;;;;5041814;28;20018;-50
2022/04/26 08:03:53;;;;;;;;;;;10.60;99.90;;;;;;5042867;28;20337;-49
2022/04/26 08:06:20;;;;;;;;;;;10.20;99.90;;;;;;5045069;28;20291;-50
2022/04/26 08:08:47;;;;;;;;;;;10.00;99.90;;;;;;5046817;28;20012;-49
2022/04/26 08:11:14;;;;;;;;;;;9.90;99.90;;;;;;5042605;28;19928;-51
2022/04/26 08:13:41;;;;;;;;;;;9.90;99.90;;;;;;5040582;28;19924;-48
2022/04/26 08:16:07;;;;;;;;;;;9.70;99.90;;;;;;5046213;28;20353;-50
2022/04/26 08:18:36;;;;;;;;;;;9.60;99.90;;;;;;5044062;28;19933;-49
2022/04/26 08:21:03;;;;;;;;;;;9.40;99.90;;;;;;5044516;28;19972;-49
2022/04/26 08:23:31;;;;;;;;;;;9.30;99.90;;;;;;5041653;28;20387;-50
2022/04/26 08:28:42;;;;;;;;;;;9.10;99.90;;;;;;5050144;28;19931;-51
2022/04/26 08:31:08;;;;;;;;;;;9.00;99.90;;;;;;5043350;28;20302;-50
2022/04/26 08:33:37;;;;;;;;;;;9.10;99.90;;;;;;5040335;28;19925;-50
2022/04/26 08:36:04;;;;;;;;;;;8.90;99.90;;;;;;5045972;28;19924;-50
2022/04/26 08:38:31;;;;;;;;;;;8.80;99.90;;;;;;5048569;28;19925;-49
2022/04/26 08:40:57;;;;;;;;;;;8.80;99.90;;;;;;5040901;28;19929;-49
2022/04/26 08:43:27;;;;;;;;;;;8.60;99.90;;;;;;5048814;28;19928;-49
2022/04/26 08:45:58;;;;;;;;;;;8.60;99.90;;;;;;5045964;28;20024;-49
2022/04/26 08:51:13;;;;;;;;;;;8.40;99.90;;;;;;5045044;28;19927;-51
2022/04/26 08:53:40;;;;;;;;;;;8.50;99.90;;;;;;5052232;28;20354;-50
2022/04/26 08:56:07;;;;;;;;;;;8.50;99.90;;;;;;5051699;28;19978;-49
2022/04/26 08:58:34;;;;;;;;;;;8.30;99.90;;;;;;5053533;28;19932;-50
2022/04/26 09:01:11;;;;;;;;;;;8.20;99.90;;;;;;5050437;28;19929;-50
2022/04/26 09:03:39;;;;;;;;;;;8.20;99.90;;;;;;5050196;28;20055;-49
2022/04/26 09:06:07;;;;;;;;;;;7.80;99.90;;;;;;5047669;28;19937;-49
2022/04/26 09:08:38;;;;;;;;;;;7.70;99.90;;;;;;5052109;28;20008;-49
2022/04/26 09:11:19;;;;;;;;;;;7.60;99.90;;;;;;5051265;28;19994;-51
2022/04/26 09:13:46;;;;;;;;;;;7.30;99.90;;;;;;5045640;28;20003;-50
2022/04/26 09:16:16;;;;;;;;;;;7.20;99.90;;;;;;5051994;28;19925;-50
2022/04/26 09:18:50;;;;;;;;;;;7.20;99.90;;;;;;5050915;28;19982;-50
2022/04/26 09:21:17;;;;;;;;;;;7.30;99.90;;;;;;5043269;28;19925;-50
2022/04/26 09:23:46;;;;;;;;;;;7.50;99.90;;;;;;5053091;28;19928;-50
2022/04/26 09:26:15;;;;;;;;;;;7.40;99.90;;;;;;5043832;28;19939;-50
2022/04/26 09:28:43;;;;;;;;;;;7.20;99.90;;;;;;5049361;28;20434;-49
2022/04/26 09:31:17;;;;;;;;;;;7.20;99.90;;;;;;5040704;28;20464;-50
2022/04/26 09:33:47;;;;;;;;;;;7.30;99.90;;;;;;5052045;28;19924;-50
2022/04/26 09:36:14;;;;;;;;;;;7.20;99.90;;;;;;5050010;28;19994;-50
2022/04/26 09:38:41;;;;;;;;;;;7.30;99.90;;;;;;5052014;28;19928;-50
2022/04/26 09:41:10;;;;;;;;;;;7.50;99.90;;;;;;5050306;28;19929;-51
2022/04/26 09:43:37;;;;;;;;;;;7.50;99.90;;;;;;5047982;28;20413;-50
2022/04/26 09:46:05;;;;;;;;;;;7.50;99.90;;;;;;5050388;28;19937;-50
2022/04/26 09:48:35;;;;;;;;;;;7.50;99.90;;;;;;5048804;28;20354;-50
2022/04/26 09:51:02;;;;;;;;;;;7.50;99.90;;;;;;5050652;28;19956;-49
2022/04/26 09:53:31;;;;;;;;;;;7.60;99.90;;;;;;5051576;28;19979;-51
2022/04/26 09:55:58;;;;;;;;;;;7.80;99.90;;;;;;5049786;28;19929;-50
2022/04/26 09:58:27;;;;;;;;;;;8.10;99.90;;;;;;5042741;28;20464;-51
2022/04/26 10:00:55;;;;;;;;;;;8.20;99.90;;;;;;5040882;28;21536;-48
2022/04/26 10:03:24;;;;;;;;;;;8.30;99.90;;;;;;5041060;28;19986;-49
2022/04/26 10:05:55;;;;;;;;;;;8.40;99.90;;;;;;5039998;28;19940;-50
2022/04/26 10:08:23;;;;;;;;;;;8.50;99.90;;;;;;5037205;28;19962;-49
2022/04/26 10:10:49;;;;;;;;;;;8.40;99.90;;;;;;5038674;28;19978;-49
2022/04/26 10:13:32;;;;;;;;;;;8.20;99.90;;;;;;5042765;28;19928;-50
2022/04/26 10:16:02;;;;;;;;;;;8.20;99.90;;;;;;5045238;28;20379;-49
2022/04/26 10:18:30;;;;;;;;;;;7.90;99.90;;;;;;5050512;28;19982;-50
2022/04/26 10:20:56;;;;;;;;;;;7.80;99.90;;;;;;5050396;28;20063;-50
2022/04/26 10:23:23;;;;;;;;;;;7.50;99.90;;;;;;5045691;28;19925;-50
2022/04/26 10:26:22;;;;;;;;;;;7.50;99.90;;;;;;5048914;28;19925;-50
2022/04/26 10:28:50;;;;;;;;;;;7.50;99.90;;;;;;5018884;28;19936;-50
2022/04/26 10:31:18;;;;;;;;;;;7.20;99.90;;;;;;5038704;28;19936;-50
2022/04/26 10:33:46;;;;;;;;;;;7.10;99.90;;;;;;5042095;28;20305;-50
2022/04/26 10:36:31;;;;;;;;;;;7.20;99.90;;;;;;5044160;28;20369;-50
2022/04/26 10:39:16;;;;;;;;;;;7.50;99.90;;;;;;5039713;28;19936;-49
2022/04/26 10:41:44;;;;;;;;;;;7.70;99.90;;;;;;5039537;28;19929;-49
2022/04/26 10:44:26;;;;;;;;;;;7.60;99.90;;;;;;5044026;28;20299;-50
2022/04/26 10:47:12;;;;;;;;;;;7.80;99.90;;;;;;5039966;28;19933;-49
2022/04/26 10:49:43;;;;;;;;;;;8.10;99.90;;;;;;5040703;28;20462;-50
2022/04/26 10:52:25;;;;;;;;;;;8.20;99.90;;;;;;5040824;28;19956;-49
2022/04/26 10:55:03;;;;;;;;;;;8.20;99.90;;;;;;5041320;28;19970;-49
2022/04/26 10:57:30;;;;;;;;;;;8.10;99.90;;;;;;5047439;28;19974;-49
2022/04/26 10:59:59;;;;;;;;;;;8.30;99.90;;;;;;5048363;28;19928;-48
2022/04/26 11:02:27;;;;;;;;;;;8.40;99.90;;;;;;5047878;28;19928;-49
2022/04/26 11:04:57;;;;;;;;;;;8.60;99.90;;;;;;5049247;28;19925;-49
2022/04/26 11:07:27;;;;;;;;;;;8.80;99.90;;;;;;5047211;28;19979;-49
2022/04/26 11:09:54;;;;;;;;;;;8.80;99.90;;;;;;5044270;28;20015;-48
2022/04/26 11:12:22;;;;;;;;;;;8.90;99.90;;;;;;5037889;28;19959;-49
2022/04/26 11:14:50;;;;;;;;;;;9.20;99.90;;;;;;5038027;28;20391;-47
2022/04/26 11:17:17;;;;;;;;;;;9.60;99.90;;;;;;5037707;28;19936;-49
2022/04/26 11:19:48;;;;;;;;;;;9.90;99.90;;;;;;5043121;28;19925;-48
2022/04/26 11:22:17;;;;;;;;;;;10.20;99.90;;;;;;5046656;28;19987;-48
2022/04/26 11:30:24;;;;;;;;;;;10.60;99.90;;;;;;5043238;28;19947;-49
2022/04/26 11:32:50;;;;;;;;;;;10.50;99.90;;;;;;5044625;28;20037;-49
2022/04/26 11:35:19;;;;;;;;;;;10.40;99.90;;;;;;5045368;28;19933;-48
2022/04/26 11:37:48;;;;;;;;;;;10.40;99.90;;;;;;5054059;28;19925;-48
2022/04/26 11:40:22;;;;;;;;;;;10.60;99.90;;;;;;5049609;28;19924;-49
2022/04/26 11:42:49;;;;;;;;;;;10.70;99.90;;;;;;5053231;28;19925;-49
2022/04/26 11:45:15;;;;;;;;;;;10.60;99.90;;;;;;5052732;28;19925;-49
2022/04/26 11:47:43;;;;;;;;;;;10.60;99.90;;;;;;5050129;28;19929;-50
2022/04/26 11:50:14;;;;;;;;;;;10.40;99.90;;;;;;5050746;28;19925;-49
2022/04/26 11:52:42;;;;;;;;;;;10.50;99.90;;;;;;5052482;28;19970;-48
2022/04/26 11:55:18;;;;;;;;;;;10.70;99.90;;;;;;5051533;28;20048;-49
2022/04/26 11:57:46;;;;;;;;;;;10.90;99.90;;;;;;5050313;28;19929;-49
2022/04/26 12:00:13;;;;;;;;;;;11.20;99.90;;;;;;5053142;28;19925;-49
2022/04/26 12:02:41;;;;;;;;;;;11.30;99.90;;;;;;5052066;28;19929;-49
2022/04/26 12:05:08;;;;;;;;;;;11.50;99.90;;;;;;5052392;28;19925;-48
2022/04/26 12:07:35;;;;;;;;;;;11.90;99.90;;;;;;5047694;28;19924;-48
2022/04/26 12:10:02;;;;;;;;;;;12.50;99.90;;;;;;5051174;28;19971;-48
2022/04/26 12:12:30;;;;;;;;;;;13.20;99.90;;;;;;5051853;28;19924;-50
2022/04/26 12:14:58;;;;;;;;;;;13.20;99.90;;;;;;5048726;28;19928;-49
2022/04/26 12:17:29;;;;;;;;;;;13.10;99.90;;;;;;5042557;28;20460;-48
2022/04/26 12:19:56;;;;;;;;;;;12.90;99.90;;;;;;5042151;28;19936;-47
2022/04/26 12:22:25;;;;;;;;;;;12.60;99.90;;;;;;5041037;28;20606;-48
2022/04/26 12:24:52;;;;;;;;;;;12.40;99.90;;;;;;5094940;22;19931;-56
2022/04/26 12:27:22;;;;;;;;;;;12.00;99.90;;;;;;5069241;28;20367;-58
2022/04/26 12:29:51;;;;;;;;;;;12.00;99.90;;;;;;5068803;28;19924;-58
2022/04/26 12:32:19;;;;;;;;;;;11.80;99.90;;;;;;5060366;28;20354;-58
2022/04/26 12:34:49;;;;;;;;;;;11.70;99.90;;;;;;5064334;28;19982;-58
2022/04/26 12:37:20;;;;;;;;;;;12.20;99.90;;;;;;5058958;28;19989;-58
2022/04/26 12:39:48;;;;;;;;;;;12.40;99.90;;;;;;5058736;28;20007;-58
2022/04/26 12:42:17;;;;;;;;;;;13.00;99.90;;;;;;5060440;28;20313;-57
2022/04/26 12:44:52;;;;;;;;;;;13.70;99.90;;;;;;5060550;28;19999;-56
2022/04/26 12:52:50;;;;;;;;;;;14.50;99.90;;;;;;5060187;28;19959;-57
2022/04/26 12:55:27;;;;;;;;;;;14.30;99.90;;;;;;5063414;28;19936;-58
2022/04/26 12:57:55;;;;;;;;;;;13.60;99.90;;;;;;5058655;28;19998;-58
2022/04/26 13:00:23;;;;;;;;;;;13.60;99.90;;;;;;5062428;28;20065;-58
2022/04/26 13:02:51;;;;;;;;;;;13.30;99.90;;;;;;5062198;28;19928;-58
2022/04/26 13:05:19;;;;;;;;;;;13.00;99.90;;;;;;5071451;28;19925;-58
2022/04/26 13:07:47;;;;;;;;;;;13.00;99.90;;;;;;5060322;28;20018;-58
2022/04/26 13:10:14;;;;;;;;;;;13.30;99.90;;;;;;5062136;28;20362;-56
2022/04/26 13:12:41;;;;;;;;;;;13.40;99.90;;;;;;5062066;28;20426;-56
2022/04/26 13:15:09;;;;;;;;;;;13.30;99.90;;;;;;5061755;28;19924;-56
2022/04/26 13:17:37;;;;;;;;;;;13.30;99.90;;;;;;5066956;28;20026;-58
2022/04/26 13:20:05;;;;;;;;;;;12.80;99.90;;;;;;5058309;28;19979;-58
2022/04/26 13:22:33;;;;;;;;;;;12.80;99.90;;;;;;5057234;28;19929;-58
2022/04/26 13:25:01;;;;;;;;;;;12.90;99.90;;;;;;5059154;28;19929;-57
2022/04/26 13:27:28;;;;;;;;;;;13.00;99.90;;;;;;5060382;28;19943;-58
2022/04/26 13:29:55;;;;;;;;;;;13.20;99.90;;;;;;5059836;28;19929;-58
2022/04/26 13:32:22;;;;;;;;;;;13.30;99.90;;;;;;5060092;28;19929;-59
2022/04/26 13:34:51;;;;;;;;;;;13.20;99.90;;;;;;5062916;28;20397;-58
2022/04/26 13:37:19;;;;;;;;;;;13.10;99.90;;;;;;5058191;28;20020;-58
2022/04/26 13:39:46;;;;;;;;;;;13.00;99.90;;;;;;5057878;28;20476;-58
2022/04/26 13:42:13;;;;;;;;;;;13.00;99.90;;;;;;5059189;28;19928;-58
2022/04/26 13:44:41;;;;;;;;;;;13.20;99.90;;;;;;5059276;28;20386;-58
2022/04/26 13:47:08;;;;;;;;;;;13.20;99.90;;;;;;5064759;28;19958;-58
2022/04/26 13:49:35;;;;;;;;;;;13.50;99.90;;;;;;5070011;28;19925;-58
2022/04/26 13:52:03;;;;;;;;;;;13.50;99.90;;;;;;5055894;28;20558;-58
2022/04/26 13:54:30;;;;;;;;;;;13.60;99.90;;;;;;5067241;28;20400;-58
2022/04/26 13:56:57;;;;;;;;;;;13.40;99.90;;;;;;5057351;28;19935;-58
2022/04/26 13:59:24;;;;;;;;;;;13.50;99.90;;;;;;5057981;28;19986;-58
2022/04/26 14:01:52;;;;;;;;;;;13.60;99.90;;;;;;5058521;28;19936;-58
2022/04/26 14:04:18;;;;;;;;;;;13.40;99.90;;;;;;5060450;28;19970;-58
2022/04/26 14:06:46;;;;;;;;;;;13.30;99.90;;;;;;5057478;28;19945;-58
2022/04/26 14:09:14;;;;;;;;;;;13.30;99.90;;;;;;5058285;28;20018;-57
2022/04/26 14:11:41;;;;;;;;;;;13.40;99.90;;;;;;5056439;28;19925;-58
2022/04/26 14:22:21;;;;;;;;;;;13.90;99.90;;;;;;5058370;28;19943;-58
2022/04/26 14:24:52;;;;;;;;;;;14.00;99.90;;;;;;5059051;28;20028;-58
2022/04/26 14:27:19;;;;;;;;;;;14.20;99.90;;;;;;5057503;28;20301;-58
2022/04/26 14:29:45;;;;;;;;;;;14.40;99.90;;;;;;5059785;28;19964;-58
2022/04/26 14:32:13;;;;;;;;;;;14.60;99.90;;;;;;5058129;28;20436;-58
2022/04/26 14:34:40;;;;;;;;;;;14.60;99.90;;;;;;5059558;28;19932;-58
2022/04/26 14:37:09;;;;;;;;;;;14.50;99.90;;;;;;5060100;28;19924;-58
2022/04/26 14:39:36;;;;;;;;;;;14.80;99.90;;;;;;5058537;28;19933;-59
2022/04/26 14:42:05;;;;;;;;;;;15.00;99.90;;;;;;5052659;28;20009;-58
2022/04/26 14:44:32;;;;;;;;;;;14.80;99.90;;;;;;5058271;28;19935;-58
2022/04/26 14:46:58;;;;;;;;;;;14.90;99.90;;;;;;5057615;28;19940;-58
2022/04/26 14:49:25;;;;;;;;;;;14.90;99.90;;;;;;5055634;28;19954;-58
2022/04/26 14:51:52;;;;;;;;;;;14.70;99.90;;;;;;5058655;28;19978;-58
2022/04/26 14:54:19;;;;;;;;;;;14.30;99.90;;;;;;5058421;28;19943;-57
2022/04/26 14:56:47;;;;;;;;;;;14.20;99.90;;;;;;5058159;28;19986;-58
2022/04/26 14:59:15;;;;;;;;;;;14.20;99.90;;;;;;5052808;28;19924;-58
2022/04/26 15:01:46;;;;;;;;;;;14.10;99.90;;;;;;5057466;28;20382;-58
2022/04/26 15:04:12;;;;;;;;;;;12.90;99.90;;;;;;5057855;28;19973;-58
2022/04/26 15:06:39;;;;;;;;;;;12.50;99.90;;;;;;5061274;28;19924;-57
2022/04/26 15:16:37;;;;;;;;;;;11.70;99.90;;;;;;5058112;28;20020;-58
2022/04/26 15:17:24;;;;;;;;;;;10.80;99.90;;;;;;5055530;28;19939;-58
2022/04/26 15:19:51;;;;;;;;;;;10.70;99.90;;;;;;5066515;28;19929;-58
2022/04/26 15:22:18;;;;;;;;;;;10.60;99.90;;;;;;5061437;28;20372;-58
2022/04/26 15:24:45;;;;;;;;;;;10.80;99.90;;;;;;5060080;28;19936;-58
2022/04/26 15:27:13;;;;;;;;;;;10.70;99.90;;;;;;5067682;28;19933;-58
2022/04/26 15:29:42;;;;;;;;;;;10.80;99.90;;;;;;5052150;28;20326;-57
2022/04/26 15:32:08;;;;;;;;;;;11.10;99.90;;;;;;5060394;28;20394;-58
2022/04/26 15:34:35;;;;;;;;;;;11.20;99.90;;;;;;5058350;28;19990;-57
2022/04/26 15:37:02;;;;;;;;;;;11.30;99.90;;;;;;5056787;28;20055;-58
2022/04/26 15:39:29;;;;;;;;;;;11.30;99.90;;;;;;5056956;28;19933;-58
2022/04/26 15:41:56;;;;;;;;;;;11.30;99.90;;;;;;5060163;28;20450;-58
2022/04/26 15:44:23;;;;;;;;;;;11.60;99.90;;;;;;5061455;28;19968;-58
2022/04/26 15:46:52;;;;;;;;;;;11.50;99.90;;;;;;5059146;28;20015;-59
2022/04/26 15:49:20;;;;;;;;;;;11.50;99.90;;;;;;5060367;28;19980;-59
2022/04/26 15:51:47;;;;;;;;;;;11.60;99.90;;;;;;5055268;28;19939;-58
2022/04/26 15:54:15;;;;;;;;;;;11.50;99.90;;;;;;5057925;28;19951;-59
2022/04/26 15:56:42;;;;;;;;;;;11.70;99.90;;;;;;5061770;28;19963;-58
2022/04/26 15:59:09;;;;;;;;;;;11.90;99.90;;;;;;5058580;28;19933;-58
2022/04/26 16:01:40;;;;;;;;;;;11.60;99.90;;;;;;5064038;28;20463;-59
2022/04/26 16:04:09;;;;;;;;;;;11.40;99.90;;;;;;5057339;28;20470;-58
2022/04/26 16:06:42;;;;;;;;;;;11.20;99.90;;;;;;5067902;28;19957;-58
2022/04/26 16:20:34;;;;;;;;;;;10.70;99.90;;;;;;5063253;28;20136;-58
2022/04/26 16:23:03;;;;;;;;;;;10.60;99.90;;;;;;5061866;28;20366;-58
2022/04/26 16:25:30;;;;;;;;;;;10.60;99.90;;;;;;5061669;28;19932;-58
2022/04/26 16:27:57;;;;;;;;;;;10.60;99.90;;;;;;5063360;28;19989;-58
2022/04/26 16:30:25;;;;;;;;;;;10.60;99.90;;;;;;5061404;28;19925;-59
2022/04/26 16:32:52;;;;;;;;;;;10.60;99.90;;;;;;5061950;28;20717;-58
2022/04/26 16:35:21;;;;;;;;;;;10.70;99.90;;;;;;5062235;28;20065;-58
2022/04/26 16:37:48;;;;;;;;;;;10.60;99.90;;;;;;5063966;28;20520;-58
2022/04/26 16:40:14;;;;;;;;;;;10.60;99.90;;;;;;5062732;28;19924;-58
2022/04/26 16:42:41;;;;;;;;;;;10.50;99.90;;;;;;5058604;28;19929;-59
2022/04/26 16:45:08;;;;;;;;;;;10.20;99.90;;;;;;5061204;28;19978;-58
2022/04/26 16:47:35;;;;;;;;;;;10.30;99.90;;;;;;5061872;28;20582;-58
2022/04/26 16:50:02;;;;;;;;;;;10.30;99.90;;;;;;5060619;28;19929;-59
2022/04/26 16:52:31;;;;;;;;;;;10.50;99.90;;;;;;5059409;28;19929;-58
2022/04/26 16:54:58;;;;;;;;;;;10.50;99.90;;;;;;5059958;28;20778;-58
2022/04/26 16:57:26;;;;;;;;;;;10.70;99.90;;;;;;5057311;28;19936;-59
2022/04/26 16:59:52;;;;;;;;;;;10.60;99.90;;;;;;5059793;28;19932;-58
2022/04/26 17:02:19;;;;;;;;;;;10.60;99.90;;;;;;5061031;28;19990;-59
2022/04/26 17:04:46;;;;;;;;;;;10.60;99.90;;;;;;5063594;28;20341;-58
2022/04/26 17:07:13;;;;;;;;;;;10.30;99.90;;;;;;5060895;28;19928;-59
2022/04/26 17:09:42;;;;;;;;;;;10.20;99.90;;;;;;5057691;28;20375;-59
2022/04/26 17:12:11;;;;;;;;;;;10.20;99.90;;;;;;5062456;28;20027;-58
2022/04/26 17:14:39;;;;;;;;;;;10.20;99.90;;;;;;5059848;28;19925;-59
2022/04/26 17:17:06;;;;;;;;;;;10.10;99.90;;;;;;5062664;28;19924;-57
2022/04/26 17:19:33;;;;;;;;;;;10.00;99.90;;;;;;5063604;28;19924;-59
2022/04/26 17:22:01;;;;;;;;;;;9.80;99.90;;;;;;5069775;28;19934;-59
2022/04/26 17:27:13;;;;;;;;;;;9.70;99.90;;;;;;5060909;28;19928;-59
2022/04/26 17:29:40;;;;;;;;;;;9.80;99.90;;;;;;5071448;28;19970;-59
2022/04/26 17:32:12;;;;;;;;;;;9.70;99.90;;;;;;5066627;28;20426;-59
2022/04/26 17:34:39;;;;;;;;;;;9.50;99.90;;;;;;5067821;28;20484;-60
2022/04/26 17:37:06;;;;;;;;;;;9.40;99.90;;;;;;5069861;28;19925;-59
2022/04/26 17:39:33;;;;;;;;;;;9.40;99.90;;;;;;5064289;28;20006;-58
2022/04/26 17:41:59;;;;;;;;;;;9.40;99.90;;;;;;5065514;28;20388;-57
2022/04/26 17:44:27;;;;;;;;;;;9.50;99.90;;;;;;5071478;28;19943;-57
2022/04/26 17:46:54;;;;;;;;;;;9.60;99.90;;;;;;5067737;28;20011;-58
2022/04/26 17:49:21;;;;;;;;;;;9.60;99.90;;;;;;5069277;28;19978;-57
2022/04/26 17:51:47;;;;;;;;;;;9.60;99.90;;;;;;5061213;28;20352;-57
2022/04/26 17:56:58;;;;;;;;;;;9.50;99.90;;;;;;5065956;28;19931;-57
2022/04/26 17:59:26;;;;;;;;;;;9.60;99.90;;;;;;5066243;28;20447;-57
2022/04/26 18:01:54;;;;;;;;;;;9.70;99.90;;;;;;5067376;28;19970;-58
2022/04/26 18:04:21;;;;;;;;;;;9.70;99.90;;;;;;5064385;28;19978;-58
2022/04/26 18:06:47;;;;;;;;;;;9.70;99.90;;;;;;5066947;28;20379;-58
2022/04/26 18:09:14;;;;;;;;;;;9.60;99.90;;;;;;5066422;28;20341;-57
2022/04/26 18:11:41;;;;;;;;;;;9.50;99.90;;;;;;5064967;28;19970;-58
2022/04/26 18:14:08;;;;;;;;;;;9.50;99.90;;;;;;5064234;28;19978;-57
2022/04/26 18:16:35;;;;;;;;;;;9.50;99.90;;;;;;5066287;28;19925;-59
2022/04/26 18:19:04;;;;;;;;;;;9.50;99.90;;;;;;5066913;28;20007;-58
2022/04/26 18:21:31;;;;;;;;;;;9.40;99.90;;;;;;5062535;28;20338;-58
2022/04/26 18:23:58;;;;;;;;;;;9.40;99.90;;;;;;5078987;22;19975;-50
2022/04/26 18:26:25;;;;;;;;;;;9.30;99.90;;;;;;5026903;28;19926;-50
2022/04/26 18:28:53;;;;;;;;;;;9.30;99.90;;;;;;5032345;28;19925;-51
2022/04/26 18:31:20;;;;;;;;;;;9.50;99.90;;;;;;5028231;28;19983;-49
2022/04/26 18:33:47;;;;;;;;;;;9.50;99.90;;;;;;5030398;28;19956;-50
2022/04/26 18:36:17;;;;;;;;;;;9.40;99.90;;;;;;5028035;28;20383;-51
2022/04/26 18:38:45;;;;;;;;;;;9.40;99.90;;;;;;5020578;28;19925;-50
2022/04/26 18:41:12;;;;;;;;;;;9.40;99.90;;;;;;5020057;28;19932;-49
2022/04/26 18:43:39;;;;;;;;;;;9.30;99.90;;;;;;5022145;28;19933;-50
2022/04/26 18:46:06;;;;;;;;;;;9.20;99.90;;;;;;5021114;28;19933;-49
2022/04/26 18:48:33;;;;;;;;;;;9.10;99.90;;;;;;5021216;28;19972;-50
2022/04/26 18:51:00;;;;;;;;;;;9.00;99.90;;;;;;5020183;28;19925;-49
2022/04/26 18:53:28;;;;;;;;;;;9.00;99.90;;;;;;5019674;28;19933;-50